sensor_id;sensor_type;location;lat;lon;timestamp;P1;durP1;ratioP1;P2;durP2;ratioP2
23682;SDS011;24897;53.514;10.482;2023-01-25T00:01:04;77.83;;;51.10;;
23682;SDS011;24897;53.514;10.482;2023-01-25T00:03:49;75.37;;;50.53;;
23682;SDS011;24897;53.514;10.482;2023-01-25T00:06:33;74.00;;;49.67;;
23682;SDS011;24897;53.514;10.482;2023-01-25T00:09:18;76.43;;;49.80;;
23682;SDS011;24897;53.514;10.482;2023-01-25T00:12:03;78.40;;;51.03;;
23682;SDS011;24897;53.514;10.482;2023-01-25T00:14:48;82.60;;;51.93;;
23682;SDS011;24897;53.514;10.482;2023-01-25T00:17:35;87.50;;;54.87;;
23682;SDS011;24897;53.514;10.482;2023-01-25T00:20:19;84.17;;;53.00;;
23682;SDS011;24897;53.514;10.482;2023-01-25T00:23:03;86.03;;;54.23;;
23682;SDS011;24897;53.514;10.482;2023-01-25T00:25:47;88.23;;;54.57;;
23682;SDS011;24897;53.514;10.482;2023-01-25T00:28:31;89.00;;;53.83;;
23682;SDS011;24897;53.514;10.482;2023-01-25T00:31:16;88.30;;;54.03;;
23682;SDS011;24897;53.514;10.482;2023-01-25T00:37:29;79.40;;;51.90;;
23682;SDS011;24897;53.514;10.482;2023-01-25T00:40:20;87.43;;;54.13;;
23682;SDS011;24897;53.514;10.482;2023-01-25T00:43:04;81.43;;;51.83;;
23682;SDS011;24897;53.514;10.482;2023-01-25T00:45:48;75.80;;;49.63;;
23682;SDS011;24897;53.514;10.482;2023-01-25T00:48:32;77.17;;;49.87;;
23682;SDS011;24897;53.514;10.482;2023-01-25T00:51:16;79.27;;;51.63;;
23682;SDS011;24897;53.514;10.482;2023-01-25T00:54:00;83.20;;;52.70;;
23682;SDS011;24897;53.514;10.482;2023-01-25T00:56:45;81.47;;;53.43;;
23682;SDS011;24897;53.514;10.482;2023-01-25T00:59:29;80.57;;;54.80;;
23682;SDS011;24897;53.514;10.482;2023-01-25T01:02:13;83.00;;;52.83;;
23682;SDS011;24897;53.514;10.482;2023-01-25T01:04:57;80.53;;;50.13;;
23682;SDS011;24897;53.514;10.482;2023-01-25T01:07:41;77.13;;;49.60;;
23682;SDS011;24897;53.514;10.482;2023-01-25T01:10:26;79.37;;;48.00;;
23682;SDS011;24897;53.514;10.482;2023-01-25T01:13:11;77.27;;;48.43;;
23682;SDS011;24897;53.514;10.482;2023-01-25T01:15:55;72.47;;;46.50;;
23682;SDS011;24897;53.514;10.482;2023-01-25T01:18:43;74.73;;;46.50;;
23682;SDS011;24897;53.514;10.482;2023-01-25T01:21:28;71.10;;;46.23;;
23682;SDS011;24897;53.514;10.482;2023-01-25T01:24:13;78.87;;;48.97;;
23682;SDS011;24897;53.514;10.482;2023-01-25T01:26:57;80.23;;;48.80;;
23682;SDS011;24897;53.514;10.482;2023-01-25T01:29:41;82.00;;;49.67;;
23682;SDS011;24897;53.514;10.482;2023-01-25T01:32:25;74.80;;;47.83;;
23682;SDS011;24897;53.514;10.482;2023-01-25T01:35:09;71.70;;;46.70;;
23682;SDS011;24897;53.514;10.482;2023-01-25T01:37:53;72.40;;;46.73;;
23682;SDS011;24897;53.514;10.482;2023-01-25T01:40:37;71.17;;;47.37;;
23682;SDS011;24897;53.514;10.482;2023-01-25T01:43:28;71.80;;;46.93;;
23682;SDS011;24897;53.514;10.482;2023-01-25T01:46:19;73.97;;;47.00;;
23682;SDS011;24897;53.514;10.482;2023-01-25T01:49:33;76.20;;;49.10;;
23682;SDS011;24897;53.514;10.482;2023-01-25T01:52:19;74.27;;;46.60;;
23682;SDS011;24897;53.514;10.482;2023-01-25T01:55:07;71.07;;;45.17;;
23682;SDS011;24897;53.514;10.482;2023-01-25T01:57:57;78.87;;;46.73;;
23682;SDS011;24897;53.514;10.482;2023-01-25T02:00:42;78.87;;;47.87;;
23682;SDS011;24897;53.514;10.482;2023-01-25T02:03:26;73.70;;;45.63;;
23682;SDS011;24897;53.514;10.482;2023-01-25T02:06:13;73.73;;;44.53;;
23682;SDS011;24897;53.514;10.482;2023-01-25T02:09:02;77.23;;;45.23;;
23682;SDS011;24897;53.514;10.482;2023-01-25T02:11:47;78.73;;;46.80;;
23682;SDS011;24897;53.514;10.482;2023-01-25T02:14:33;70.40;;;45.13;;
23682;SDS011;24897;53.514;10.482;2023-01-25T02:17:41;72.40;;;45.03;;
23682;SDS011;24897;53.514;10.482;2023-01-25T02:20:43;73.10;;;44.43;;
23682;SDS011;24897;53.514;10.482;2023-01-25T02:26:30;75.13;;;45.60;;
23682;SDS011;24897;53.514;10.482;2023-01-25T02:29:14;72.23;;;45.50;;
23682;SDS011;24897;53.514;10.482;2023-01-25T02:32:02;75.53;;;45.43;;
23682;SDS011;24897;53.514;10.482;2023-01-25T02:34:49;73.87;;;45.63;;
23682;SDS011;24897;53.514;10.482;2023-01-25T02:37:33;75.77;;;44.80;;
23682;SDS011;24897;53.514;10.482;2023-01-25T02:40:17;69.57;;;43.73;;
23682;SDS011;24897;53.514;10.482;2023-01-25T02:43:02;71.53;;;43.97;;
23682;SDS011;24897;53.514;10.482;2023-01-25T02:45:46;71.67;;;43.97;;
23682;SDS011;24897;53.514;10.482;2023-01-25T02:48:35;68.37;;;43.87;;
23682;SDS011;24897;53.514;10.482;2023-01-25T02:51:20;65.97;;;43.00;;
23682;SDS011;24897;53.514;10.482;2023-01-25T02:54:07;67.47;;;44.33;;
23682;SDS011;24897;53.514;10.482;2023-01-25T02:56:53;63.20;;;44.27;;
23682;SDS011;24897;53.514;10.482;2023-01-25T02:59:38;62.23;;;41.90;;
23682;SDS011;24897;53.514;10.482;2023-01-25T03:02:22;63.50;;;43.20;;
23682;SDS011;24897;53.514;10.482;2023-01-25T03:05:07;65.33;;;43.27;;
23682;SDS011;24897;53.514;10.482;2023-01-25T03:07:51;62.00;;;42.13;;
23682;SDS011;24897;53.514;10.482;2023-01-25T03:10:35;63.20;;;42.93;;
23682;SDS011;24897;53.514;10.482;2023-01-25T03:13:19;59.10;;;41.80;;
23682;SDS011;24897;53.514;10.482;2023-01-25T03:16:05;57.70;;;42.57;;
23682;SDS011;24897;53.514;10.482;2023-01-25T03:18:52;58.50;;;41.53;;
23682;SDS011;24897;53.514;10.482;2023-01-25T03:21:39;53.47;;;40.50;;
23682;SDS011;24897;53.514;10.482;2023-01-25T03:24:24;57.77;;;41.97;;
23682;SDS011;24897;53.514;10.482;2023-01-25T03:27:08;57.07;;;41.60;;
23682;SDS011;24897;53.514;10.482;2023-01-25T03:29:56;56.00;;;40.73;;
23682;SDS011;24897;53.514;10.482;2023-01-25T03:32:40;58.23;;;41.73;;
23682;SDS011;24897;53.514;10.482;2023-01-25T03:35:24;59.90;;;41.77;;
23682;SDS011;24897;53.514;10.482;2023-01-25T03:38:09;59.53;;;43.50;;
23682;SDS011;24897;53.514;10.482;2023-01-25T03:40:53;54.67;;;39.70;;
23682;SDS011;24897;53.514;10.482;2023-01-25T03:43:37;56.43;;;39.57;;
23682;SDS011;24897;53.514;10.482;2023-01-25T03:46:22;52.93;;;39.77;;
23682;SDS011;24897;53.514;10.482;2023-01-25T03:49:09;53.17;;;39.63;;
23682;SDS011;24897;53.514;10.482;2023-01-25T03:51:53;53.17;;;39.90;;
23682;SDS011;24897;53.514;10.482;2023-01-25T03:54:37;50.50;;;38.57;;
23682;SDS011;24897;53.514;10.482;2023-01-25T03:57:22;55.13;;;38.50;;
23682;SDS011;24897;53.514;10.482;2023-01-25T04:00:06;50.20;;;38.47;;
23682;SDS011;24897;53.514;10.482;2023-01-25T04:02:51;51.53;;;38.23;;
23682;SDS011;24897;53.514;10.482;2023-01-25T04:05:35;51.47;;;38.27;;
23682;SDS011;24897;53.514;10.482;2023-01-25T04:08:20;52.10;;;40.03;;
23682;SDS011;24897;53.514;10.482;2023-01-25T04:11:05;52.73;;;39.83;;
23682;SDS011;24897;53.514;10.482;2023-01-25T04:13:52;53.67;;;40.07;;
23682;SDS011;24897;53.514;10.482;2023-01-25T04:16:37;50.90;;;39.60;;
23682;SDS011;24897;53.514;10.482;2023-01-25T04:19:21;48.90;;;39.60;;
23682;SDS011;24897;53.514;10.482;2023-01-25T04:22:05;48.77;;;39.07;;
23682;SDS011;24897;53.514;10.482;2023-01-25T04:24:51;51.83;;;39.90;;
23682;SDS011;24897;53.514;10.482;2023-01-25T04:27:35;49.20;;;38.63;;
23682;SDS011;24897;53.514;10.482;2023-01-25T04:30:19;53.97;;;40.47;;
23682;SDS011;24897;53.514;10.482;2023-01-25T04:33:04;58.03;;;41.27;;
23682;SDS011;24897;53.514;10.482;2023-01-25T04:35:49;56.13;;;41.43;;
23682;SDS011;24897;53.514;10.482;2023-01-25T04:38:34;54.90;;;41.17;;
23682;SDS011;24897;53.514;10.482;2023-01-25T04:41:18;55.67;;;41.20;;
23682;SDS011;24897;53.514;10.482;2023-01-25T04:44:02;54.87;;;43.33;;
23682;SDS011;24897;53.514;10.482;2023-01-25T04:46:46;56.63;;;42.80;;
23682;SDS011;24897;53.514;10.482;2023-01-25T04:49:32;54.30;;;41.20;;
23682;SDS011;24897;53.514;10.482;2023-01-25T04:52:16;56.10;;;40.37;;
23682;SDS011;24897;53.514;10.482;2023-01-25T04:55:00;57.00;;;42.23;;
23682;SDS011;24897;53.514;10.482;2023-01-25T04:57:44;54.67;;;41.47;;
23682;SDS011;24897;53.514;10.482;2023-01-25T05:00:32;52.87;;;41.70;;
23682;SDS011;24897;53.514;10.482;2023-01-25T05:03:17;58.90;;;45.60;;
23682;SDS011;24897;53.514;10.482;2023-01-25T05:06:01;57.37;;;42.97;;
23682;SDS011;24897;53.514;10.482;2023-01-25T05:08:45;56.57;;;42.43;;
23682;SDS011;24897;53.514;10.482;2023-01-25T05:11:29;57.77;;;42.57;;
23682;SDS011;24897;53.514;10.482;2023-01-25T05:14:13;56.60;;;43.27;;
23682;SDS011;24897;53.514;10.482;2023-01-25T05:16:57;60.67;;;45.10;;
23682;SDS011;24897;53.514;10.482;2023-01-25T05:19:42;56.80;;;41.73;;
23682;SDS011;24897;53.514;10.482;2023-01-25T05:22:26;60.87;;;43.47;;
23682;SDS011;24897;53.514;10.482;2023-01-25T05:25:10;57.93;;;43.10;;
23682;SDS011;24897;53.514;10.482;2023-01-25T05:28:14;55.03;;;41.90;;
23682;SDS011;24897;53.514;10.482;2023-01-25T05:30:58;57.17;;;42.97;;
23682;SDS011;24897;53.514;10.482;2023-01-25T05:33:46;56.47;;;41.87;;
23682;SDS011;24897;53.514;10.482;2023-01-25T05:36:30;55.30;;;41.23;;
23682;SDS011;24897;53.514;10.482;2023-01-25T05:39:14;56.23;;;42.47;;
23682;SDS011;24897;53.514;10.482;2023-01-25T05:41:58;60.20;;;42.70;;
23682;SDS011;24897;53.514;10.482;2023-01-25T05:44:43;56.43;;;41.90;;
23682;SDS011;24897;53.514;10.482;2023-01-25T05:47:28;57.03;;;42.67;;
23682;SDS011;24897;53.514;10.482;2023-01-25T05:50:12;55.60;;;41.43;;
23682;SDS011;24897;53.514;10.482;2023-01-25T05:52:57;57.57;;;43.40;;
23682;SDS011;24897;53.514;10.482;2023-01-25T05:55:41;53.90;;;41.40;;
23682;SDS011;24897;53.514;10.482;2023-01-25T05:58:25;52.03;;;40.87;;
23682;SDS011;24897;53.514;10.482;2023-01-25T06:01:09;58.37;;;43.17;;
23682;SDS011;24897;53.514;10.482;2023-01-25T06:03:54;56.17;;;42.37;;
23682;SDS011;24897;53.514;10.482;2023-01-25T06:06:39;59.47;;;44.30;;
23682;SDS011;24897;53.514;10.482;2023-01-25T06:09:23;60.67;;;43.10;;
23682;SDS011;24897;53.514;10.482;2023-01-25T06:12:09;62.40;;;44.60;;
23682;SDS011;24897;53.514;10.482;2023-01-25T06:14:53;59.53;;;43.80;;
23682;SDS011;24897;53.514;10.482;2023-01-25T06:17:37;59.13;;;43.27;;
23682;SDS011;24897;53.514;10.482;2023-01-25T06:20:21;57.73;;;42.87;;
23682;SDS011;24897;53.514;10.482;2023-01-25T06:23:06;55.30;;;41.87;;
23682;SDS011;24897;53.514;10.482;2023-01-25T06:25:50;57.77;;;42.53;;
23682;SDS011;24897;53.514;10.482;2023-01-25T06:28:34;57.20;;;41.30;;
23682;SDS011;24897;53.514;10.482;2023-01-25T06:31:19;56.00;;;42.67;;
23682;SDS011;24897;53.514;10.482;2023-01-25T06:34:04;58.03;;;42.87;;
23682;SDS011;24897;53.514;10.482;2023-01-25T06:36:50;54.37;;;41.83;;
23682;SDS011;24897;53.514;10.482;2023-01-25T06:39:34;51.73;;;39.30;;
23682;SDS011;24897;53.514;10.482;2023-01-25T06:42:18;53.53;;;39.87;;
23682;SDS011;24897;53.514;10.482;2023-01-25T06:45:03;58.67;;;43.03;;
23682;SDS011;24897;53.514;10.482;2023-01-25T06:47:47;57.03;;;42.13;;
23682;SDS011;24897;53.514;10.482;2023-01-25T06:50:32;59.53;;;42.43;;
23682;SDS011;24897;53.514;10.482;2023-01-25T06:53:16;60.17;;;45.33;;
23682;SDS011;24897;53.514;10.482;2023-01-25T06:56:04;60.43;;;43.60;;
23682;SDS011;24897;53.514;10.482;2023-01-25T06:58:50;55.63;;;41.20;;
23682;SDS011;24897;53.514;10.482;2023-01-25T07:01:34;60.77;;;42.63;;
23682;SDS011;24897;53.514;10.482;2023-01-25T07:04:19;59.37;;;41.57;;
23682;SDS011;24897;53.514;10.482;2023-01-25T07:07:06;58.47;;;42.47;;
23682;SDS011;24897;53.514;10.482;2023-01-25T07:09:51;60.77;;;44.80;;
23682;SDS011;24897;53.514;10.482;2023-01-25T07:12:35;60.63;;;44.93;;
23682;SDS011;24897;53.514;10.482;2023-01-25T07:15:20;61.13;;;43.93;;
23682;SDS011;24897;53.514;10.482;2023-01-25T07:18:04;61.13;;;43.97;;
23682;SDS011;24897;53.514;10.482;2023-01-25T07:20:48;57.10;;;43.13;;
23682;SDS011;24897;53.514;10.482;2023-01-25T07:23:33;61.50;;;42.77;;
23682;SDS011;24897;53.514;10.482;2023-01-25T07:26:22;63.40;;;45.03;;
23682;SDS011;24897;53.514;10.482;2023-01-25T07:29:08;57.10;;;42.93;;
23682;SDS011;24897;53.514;10.482;2023-01-25T07:31:56;56.30;;;42.63;;
23682;SDS011;24897;53.514;10.482;2023-01-25T07:34:40;59.60;;;43.47;;
23682;SDS011;24897;53.514;10.482;2023-01-25T07:37:24;60.47;;;43.57;;
23682;SDS011;24897;53.514;10.482;2023-01-25T07:40:10;59.13;;;43.33;;
23682;SDS011;24897;53.514;10.482;2023-01-25T07:42:56;61.40;;;44.97;;
23682;SDS011;24897;53.514;10.482;2023-01-25T07:45:41;62.53;;;44.13;;
23682;SDS011;24897;53.514;10.482;2023-01-25T07:48:28;66.87;;;44.83;;
23682;SDS011;24897;53.514;10.482;2023-01-25T07:51:12;59.93;;;43.33;;
23682;SDS011;24897;53.514;10.482;2023-01-25T07:54:09;60.33;;;42.70;;
23682;SDS011;24897;53.514;10.482;2023-01-25T07:56:54;60.57;;;43.70;;
23682;SDS011;24897;53.514;10.482;2023-01-25T07:59:40;61.90;;;44.10;;
23682;SDS011;24897;53.514;10.482;2023-01-25T08:02:24;60.23;;;43.20;;
23682;SDS011;24897;53.514;10.482;2023-01-25T08:05:08;61.83;;;44.33;;
23682;SDS011;24897;53.514;10.482;2023-01-25T08:07:53;61.07;;;43.33;;
23682;SDS011;24897;53.514;10.482;2023-01-25T08:10:37;61.10;;;43.83;;
23682;SDS011;24897;53.514;10.482;2023-01-25T08:13:21;58.83;;;42.77;;
23682;SDS011;24897;53.514;10.482;2023-01-25T08:16:05;61.97;;;42.73;;
23682;SDS011;24897;53.514;10.482;2023-01-25T08:18:50;60.40;;;42.93;;
23682;SDS011;24897;53.514;10.482;2023-01-25T08:21:40;60.30;;;43.40;;
23682;SDS011;24897;53.514;10.482;2023-01-25T08:24:24;62.47;;;45.37;;
23682;SDS011;24897;53.514;10.482;2023-01-25T08:27:08;62.20;;;45.00;;
23682;SDS011;24897;53.514;10.482;2023-01-25T08:29:52;61.53;;;43.53;;
23682;SDS011;24897;53.514;10.482;2023-01-25T08:32:37;62.03;;;46.20;;
23682;SDS011;24897;53.514;10.482;2023-01-25T08:35:22;58.87;;;43.33;;
23682;SDS011;24897;53.514;10.482;2023-01-25T08:38:06;59.80;;;42.77;;
23682;SDS011;24897;53.514;10.482;2023-01-25T08:40:49;59.33;;;42.83;;
23682;SDS011;24897;53.514;10.482;2023-01-25T08:43:34;63.40;;;45.27;;
23682;SDS011;24897;53.514;10.482;2023-01-25T08:46:20;63.40;;;44.00;;
23682;SDS011;24897;53.514;10.482;2023-01-25T08:49:05;60.77;;;42.90;;
23682;SDS011;24897;53.514;10.482;2023-01-25T08:51:50;65.23;;;44.63;;
23682;SDS011;24897;53.514;10.482;2023-01-25T08:54:35;65.63;;;44.87;;
23682;SDS011;24897;53.514;10.482;2023-01-25T08:57:19;59.60;;;44.57;;
23682;SDS011;24897;53.514;10.482;2023-01-25T09:00:04;61.80;;;44.47;;
23682;SDS011;24897;53.514;10.482;2023-01-25T09:02:48;63.03;;;43.93;;
23682;SDS011;24897;53.514;10.482;2023-01-25T09:05:33;60.73;;;45.17;;
23682;SDS011;24897;53.514;10.482;2023-01-25T09:08:17;60.57;;;43.27;;
23682;SDS011;24897;53.514;10.482;2023-01-25T09:11:02;63.60;;;44.67;;
23682;SDS011;24897;53.514;10.482;2023-01-25T09:13:48;60.53;;;44.03;;
23682;SDS011;24897;53.514;10.482;2023-01-25T09:16:32;63.37;;;45.20;;
23682;SDS011;24897;53.514;10.482;2023-01-25T09:19:17;62.23;;;45.80;;
23682;SDS011;24897;53.514;10.482;2023-01-25T09:22:01;62.00;;;45.80;;
23682;SDS011;24897;53.514;10.482;2023-01-25T09:24:46;63.80;;;45.07;;
23682;SDS011;24897;53.514;10.482;2023-01-25T09:27:34;64.67;;;45.77;;
23682;SDS011;24897;53.514;10.482;2023-01-25T09:30:18;62.27;;;44.80;;
23682;SDS011;24897;53.514;10.482;2023-01-25T09:33:03;63.13;;;45.07;;
23682;SDS011;24897;53.514;10.482;2023-01-25T09:35:47;65.03;;;45.20;;
23682;SDS011;24897;53.514;10.482;2023-01-25T09:38:32;63.43;;;45.70;;
23682;SDS011;24897;53.514;10.482;2023-01-25T09:44:32;62.43;;;44.40;;
23682;SDS011;24897;53.514;10.482;2023-01-25T09:47:50;60.33;;;42.17;;
23682;SDS011;24897;53.514;10.482;2023-01-25T09:54:01;59.77;;;42.90;;
23682;SDS011;24897;53.514;10.482;2023-01-25T09:56:47;58.27;;;41.50;;
23682;SDS011;24897;53.514;10.482;2023-01-25T09:59:34;61.23;;;43.87;;
23682;SDS011;24897;53.514;10.482;2023-01-25T10:05:40;59.03;;;43.47;;
23682;SDS011;24897;53.514;10.482;2023-01-25T10:08:48;59.20;;;43.53;;
23682;SDS011;24897;53.514;10.482;2023-01-25T10:11:37;57.33;;;43.53;;
23682;SDS011;24897;53.514;10.482;2023-01-25T10:14:22;56.17;;;42.67;;
23682;SDS011;24897;53.514;10.482;2023-01-25T10:17:31;55.20;;;40.97;;
23682;SDS011;24897;53.514;10.482;2023-01-25T10:29:01;55.87;;;40.30;;
23682;SDS011;24897;53.514;10.482;2023-01-25T10:32:12;56.07;;;40.93;;
23682;SDS011;24897;53.514;10.482;2023-01-25T10:35:14;53.43;;;41.27;;
23682;SDS011;24897;53.514;10.482;2023-01-25T10:38:02;55.53;;;41.40;;
23682;SDS011;24897;53.514;10.482;2023-01-25T10:40:57;57.93;;;43.30;;
23682;SDS011;24897;53.514;10.482;2023-01-25T10:43:55;58.37;;;41.63;;
23682;SDS011;24897;53.514;10.482;2023-01-25T10:49:59;57.37;;;43.43;;
23682;SDS011;24897;53.514;10.482;2023-01-25T10:52:44;55.03;;;42.13;;
23682;SDS011;24897;53.514;10.482;2023-01-25T10:55:43;59.20;;;45.00;;
23682;SDS011;24897;53.514;10.482;2023-01-25T10:58:41;58.67;;;42.30;;
23682;SDS011;24897;53.514;10.482;2023-01-25T11:01:32;55.67;;;42.10;;
23682;SDS011;24897;53.514;10.482;2023-01-25T11:04:35;57.40;;;42.63;;
23682;SDS011;24897;53.514;10.482;2023-01-25T11:07:27;57.43;;;41.67;;
23682;SDS011;24897;53.514;10.482;2023-01-25T11:10:34;59.53;;;44.13;;
23682;SDS011;24897;53.514;10.482;2023-01-25T11:13:31;57.73;;;42.77;;
23682;SDS011;24897;53.514;10.482;2023-01-25T11:19:20;62.93;;;45.40;;
23682;SDS011;24897;53.514;10.482;2023-01-25T11:22:19;61.13;;;44.20;;
23682;SDS011;24897;53.514;10.482;2023-01-25T11:31:04;60.70;;;45.80;;
23682;SDS011;24897;53.514;10.482;2023-01-25T11:33:53;63.50;;;45.70;;
23682;SDS011;24897;53.514;10.482;2023-01-25T11:48:56;74.80;;;48.20;;
23682;SDS011;24897;53.514;10.482;2023-01-25T11:52:08;67.30;;;46.43;;
23682;SDS011;24897;53.514;10.482;2023-01-25T12:04:38;66.50;;;46.93;;
23682;SDS011;24897;53.514;10.482;2023-01-25T12:10:31;66.63;;;47.77;;
23682;SDS011;24897;53.514;10.482;2023-01-25T12:13:29;74.43;;;49.70;;
23682;SDS011;24897;53.514;10.482;2023-01-25T12:19:54;72.33;;;48.87;;
23682;SDS011;24897;53.514;10.482;2023-01-25T12:32:04;62.63;;;46.53;;
23682;SDS011;24897;53.514;10.482;2023-01-25T12:35:04;67.53;;;47.87;;
23682;SDS011;24897;53.514;10.482;2023-01-25T12:38:01;69.23;;;49.80;;
23682;SDS011;24897;53.514;10.482;2023-01-25T12:41:35;74.13;;;51.27;;
23682;SDS011;24897;53.514;10.482;2023-01-25T12:44:24;101.17;;;65.60;;
23682;SDS011;24897;53.514;10.482;2023-01-25T12:47:13;105.83;;;65.77;;
23682;SDS011;24897;53.514;10.482;2023-01-25T12:50:28;112.80;;;72.33;;
23682;SDS011;24897;53.514;10.482;2023-01-25T12:53:19;77.73;;;50.77;;
23682;SDS011;24897;53.514;10.482;2023-01-25T12:56:16;74.97;;;50.47;;
23682;SDS011;24897;53.514;10.482;2023-01-25T13:02:33;69.17;;;49.83;;
23682;SDS011;24897;53.514;10.482;2023-01-25T13:08:48;69.87;;;47.37;;
23682;SDS011;24897;53.514;10.482;2023-01-25T13:11:39;71.83;;;49.50;;
23682;SDS011;24897;53.514;10.482;2023-01-25T13:14:36;70.07;;;47.73;;
23682;SDS011;24897;53.514;10.482;2023-01-25T13:17:28;67.57;;;46.73;;
23682;SDS011;24897;53.514;10.482;2023-01-25T13:38:27;75.00;;;50.23;;
23682;SDS011;24897;53.514;10.482;2023-01-25T13:41:14;66.37;;;47.73;;
23682;SDS011;24897;53.514;10.482;2023-01-25T13:44:34;71.23;;;48.77;;
23682;SDS011;24897;53.514;10.482;2023-01-25T13:47:12;69.20;;;49.13;;
23682;SDS011;24897;53.514;10.482;2023-01-25T13:50:01;69.90;;;49.20;;
23682;SDS011;24897;53.514;10.482;2023-01-25T13:52:57;74.10;;;50.00;;
23682;SDS011;24897;53.514;10.482;2023-01-25T13:58:33;77.03;;;51.80;;
23682;SDS011;24897;53.514;10.482;2023-01-25T14:01:19;77.37;;;52.90;;
23682;SDS011;24897;53.514;10.482;2023-01-25T14:04:05;71.83;;;50.77;;
23682;SDS011;24897;53.514;10.482;2023-01-25T14:06:54;74.40;;;50.37;;
23682;SDS011;24897;53.514;10.482;2023-01-25T14:09:42;77.80;;;54.30;;
23682;SDS011;24897;53.514;10.482;2023-01-25T14:12:30;85.00;;;56.63;;
23682;SDS011;24897;53.514;10.482;2023-01-25T14:18:14;75.60;;;50.97;;
23682;SDS011;24897;53.514;10.482;2023-01-25T14:21:09;74.57;;;49.87;;
23682;SDS011;24897;53.514;10.482;2023-01-25T14:24:07;79.70;;;52.47;;
23682;SDS011;24897;53.514;10.482;2023-01-25T14:26:52;80.93;;;53.70;;
23682;SDS011;24897;53.514;10.482;2023-01-25T14:29:36;80.37;;;51.17;;
23682;SDS011;24897;53.514;10.482;2023-01-25T14:32:21;76.43;;;50.60;;
23682;SDS011;24897;53.514;10.482;2023-01-25T14:41:28;75.00;;;49.13;;
23682;SDS011;24897;53.514;10.482;2023-01-25T14:44:17;82.80;;;52.07;;
23682;SDS011;24897;53.514;10.482;2023-01-25T14:53:20;75.83;;;49.83;;
23682;SDS011;24897;53.514;10.482;2023-01-25T14:56:13;76.90;;;50.63;;
23682;SDS011;24897;53.514;10.482;2023-01-25T14:59:28;75.30;;;49.20;;
23682;SDS011;24897;53.514;10.482;2023-01-25T15:02:27;76.80;;;49.27;;
23682;SDS011;24897;53.514;10.482;2023-01-25T15:10:57;87.37;;;51.70;;
23682;SDS011;24897;53.514;10.482;2023-01-25T15:14:02;83.17;;;53.47;;
23682;SDS011;24897;53.514;10.482;2023-01-25T15:16:56;80.60;;;50.37;;
23682;SDS011;24897;53.514;10.482;2023-01-25T15:19:40;87.53;;;50.73;;
23682;SDS011;24897;53.514;10.482;2023-01-25T15:22:35;84.23;;;52.50;;
23682;SDS011;24897;53.514;10.482;2023-01-25T15:25:19;88.20;;;53.33;;
23682;SDS011;24897;53.514;10.482;2023-01-25T15:28:04;84.93;;;52.20;;
23682;SDS011;24897;53.514;10.482;2023-01-25T15:30:49;84.87;;;51.17;;
23682;SDS011;24897;53.514;10.482;2023-01-25T15:33:34;80.27;;;49.30;;
23682;SDS011;24897;53.514;10.482;2023-01-25T15:36:18;83.37;;;48.93;;
23682;SDS011;24897;53.514;10.482;2023-01-25T15:39:03;88.13;;;49.83;;
23682;SDS011;24897;53.514;10.482;2023-01-25T15:41:48;85.27;;;47.00;;
23682;SDS011;24897;53.514;10.482;2023-01-25T15:44:32;86.77;;;47.87;;
23682;SDS011;24897;53.514;10.482;2023-01-25T15:47:16;86.47;;;46.97;;
23682;SDS011;24897;53.514;10.482;2023-01-25T15:50:00;96.27;;;50.63;;
23682;SDS011;24897;53.514;10.482;2023-01-25T15:52:45;93.03;;;49.93;;
23682;SDS011;24897;53.514;10.482;2023-01-25T15:55:30;91.23;;;50.40;;
23682;SDS011;24897;53.514;10.482;2023-01-25T15:58:26;93.80;;;49.20;;
23682;SDS011;24897;53.514;10.482;2023-01-25T16:01:13;96.97;;;53.27;;
23682;SDS011;24897;53.514;10.482;2023-01-25T16:03:58;97.67;;;50.77;;
23682;SDS011;24897;53.514;10.482;2023-01-25T16:06:43;99.30;;;51.17;;
23682;SDS011;24897;53.514;10.482;2023-01-25T16:09:30;99.87;;;53.47;;
23682;SDS011;24897;53.514;10.482;2023-01-25T16:12:15;98.63;;;51.93;;
23682;SDS011;24897;53.514;10.482;2023-01-25T16:14:59;93.70;;;52.27;;
23682;SDS011;24897;53.514;10.482;2023-01-25T16:17:43;100.33;;;53.87;;
23682;SDS011;24897;53.514;10.482;2023-01-25T16:20:27;105.93;;;55.37;;
23682;SDS011;24897;53.514;10.482;2023-01-25T16:23:11;105.10;;;53.73;;
23682;SDS011;24897;53.514;10.482;2023-01-25T16:25:56;111.60;;;54.07;;
23682;SDS011;24897;53.514;10.482;2023-01-25T16:28:40;101.70;;;52.63;;
23682;SDS011;24897;53.514;10.482;2023-01-25T16:31:24;105.33;;;53.97;;
23682;SDS011;24897;53.514;10.482;2023-01-25T16:34:09;113.43;;;54.13;;
23682;SDS011;24897;53.514;10.482;2023-01-25T16:36:53;128.20;;;57.53;;
23682;SDS011;24897;53.514;10.482;2023-01-25T16:39:37;123.30;;;53.70;;
23682;SDS011;24897;53.514;10.482;2023-01-25T16:42:21;132.77;;;58.17;;
23682;SDS011;24897;53.514;10.482;2023-01-25T16:45:06;141.17;;;59.20;;
23682;SDS011;24897;53.514;10.482;2023-01-25T16:47:51;160.63;;;60.50;;
23682;SDS011;24897;53.514;10.482;2023-01-25T16:50:35;161.13;;;59.67;;
23682;SDS011;24897;53.514;10.482;2023-01-25T16:53:19;142.43;;;57.17;;
23682;SDS011;24897;53.514;10.482;2023-01-25T16:56:04;145.33;;;59.23;;
23682;SDS011;24897;53.514;10.482;2023-01-25T16:58:49;169.60;;;63.63;;
23682;SDS011;24897;53.514;10.482;2023-01-25T17:01:34;155.17;;;60.70;;
23682;SDS011;24897;53.514;10.482;2023-01-25T17:04:20;146.17;;;61.23;;
23682;SDS011;24897;53.514;10.482;2023-01-25T17:07:05;188.37;;;65.03;;
23682;SDS011;24897;53.514;10.482;2023-01-25T17:09:51;158.90;;;60.87;;
23682;SDS011;24897;53.514;10.482;2023-01-25T17:12:36;149.23;;;58.43;;
23682;SDS011;24897;53.514;10.482;2023-01-25T17:15:20;158.43;;;60.83;;
23682;SDS011;24897;53.514;10.482;2023-01-25T17:18:05;171.23;;;61.60;;
23682;SDS011;24897;53.514;10.482;2023-01-25T17:20:56;154.00;;;60.87;;
23682;SDS011;24897;53.514;10.482;2023-01-25T17:23:44;161.20;;;61.80;;
23682;SDS011;24897;53.514;10.482;2023-01-25T17:26:29;136.03;;;59.40;;
23682;SDS011;24897;53.514;10.482;2023-01-25T17:29:14;139.40;;;58.00;;
23682;SDS011;24897;53.514;10.482;2023-01-25T17:31:59;119.27;;;55.63;;
23682;SDS011;24897;53.514;10.482;2023-01-25T17:34:43;135.53;;;54.53;;
23682;SDS011;24897;53.514;10.482;2023-01-25T17:37:28;138.80;;;58.07;;
23682;SDS011;24897;53.514;10.482;2023-01-25T17:40:12;139.23;;;58.47;;
23682;SDS011;24897;53.514;10.482;2023-01-25T17:42:56;128.40;;;56.17;;
23682;SDS011;24897;53.514;10.482;2023-01-25T17:45:40;154.23;;;59.77;;
23682;SDS011;24897;53.514;10.482;2023-01-25T17:48:24;138.80;;;58.03;;
23682;SDS011;24897;53.514;10.482;2023-01-25T17:51:08;135.50;;;55.43;;
23682;SDS011;24897;53.514;10.482;2023-01-25T17:53:53;111.97;;;53.13;;
23682;SDS011;24897;53.514;10.482;2023-01-25T17:56:36;128.33;;;56.80;;
23682;SDS011;24897;53.514;10.482;2023-01-25T17:59:21;133.03;;;55.53;;
23682;SDS011;24897;53.514;10.482;2023-01-25T18:02:06;132.80;;;56.83;;
23682;SDS011;24897;53.514;10.482;2023-01-25T18:04:52;117.17;;;51.60;;